sensor_id;sensor_type;location;lat;lon;timestamp;P1;durP1;ratioP1;P2;durP2;ratioP2
43146;SDS011;28752;48.266;7.402;2023-03-01T00:01:18;25.60;;;12.63;;
43146;SDS011;28752;48.266;7.402;2023-03-01T00:03:46;20.60;;;13.05;;
43146;SDS011;28752;48.266;7.402;2023-03-01T00:06:11;24.80;;;13.95;;
43146;SDS011;28752;48.266;7.402;2023-03-01T00:08:37;22.50;;;13.35;;
43146;SDS011;28752;48.266;7.402;2023-03-01T00:13:42;23.85;;;13.75;;
43146;SDS011;28752;48.266;7.402;2023-03-01T00:16:10;22.92;;;13.45;;
43146;SDS011;28752;48.266;7.402;2023-03-01T00:18:38;21.65;;;13.63;;
43146;SDS011;28752;48.266;7.402;2023-03-01T00:21:04;24.73;;;13.90;;
43146;SDS011;28752;48.266;7.402;2023-03-01T00:23:30;22.92;;;14.00;;
43146;SDS011;28752;48.266;7.402;2023-03-01T00:25:56;23.13;;;13.60;;
43146;SDS011;28752;48.266;7.402;2023-03-01T00:28:21;21.97;;;13.60;;
43146;SDS011;28752;48.266;7.402;2023-03-01T00:30:47;22.67;;;13.83;;
43146;SDS011;28752;48.266;7.402;2023-03-01T00:33:13;25.75;;;13.73;;
43146;SDS011;28752;48.266;7.402;2023-03-01T00:35:39;21.23;;;11.97;;
43146;SDS011;28752;48.266;7.402;2023-03-01T00:38:04;21.38;;;13.77;;
43146;SDS011;28752;48.266;7.402;2023-03-01T00:40:30;24.13;;;14.07;;
43146;SDS011;28752;48.266;7.402;2023-03-01T00:42:57;24.83;;;13.65;;
43146;SDS011;28752;48.266;7.402;2023-03-01T00:45:23;21.33;;;13.27;;
43146;SDS011;28752;48.266;7.402;2023-03-01T00:47:48;20.83;;;12.32;;
43146;SDS011;28752;48.266;7.402;2023-03-01T00:50:15;22.77;;;13.00;;
43146;SDS011;28752;48.266;7.402;2023-03-01T00:52:40;22.98;;;13.50;;
43146;SDS011;28752;48.266;7.402;2023-03-01T00:55:06;23.37;;;12.60;;
43146;SDS011;28752;48.266;7.402;2023-03-01T00:57:32;23.02;;;12.38;;
43146;SDS011;28752;48.266;7.402;2023-03-01T00:59:58;22.13;;;12.35;;
43146;SDS011;28752;48.266;7.402;2023-03-01T01:02:23;24.20;;;13.10;;
43146;SDS011;28752;48.266;7.402;2023-03-01T01:04:49;24.73;;;13.25;;
43146;SDS011;28752;48.266;7.402;2023-03-01T01:07:15;21.60;;;12.93;;
43146;SDS011;28752;48.266;7.402;2023-03-01T01:09:41;20.98;;;12.27;;
43146;SDS011;28752;48.266;7.402;2023-03-01T01:12:07;19.07;;;12.13;;
43146;SDS011;28752;48.266;7.402;2023-03-01T01:14:33;23.33;;;13.48;;
43146;SDS011;28752;48.266;7.402;2023-03-01T01:16:58;20.88;;;12.70;;
43146;SDS011;28752;48.266;7.402;2023-03-01T01:19:24;20.17;;;12.27;;
43146;SDS011;28752;48.266;7.402;2023-03-01T01:21:51;21.75;;;12.55;;
43146;SDS011;28752;48.266;7.402;2023-03-01T01:24:17;23.30;;;13.40;;
43146;SDS011;28752;48.266;7.402;2023-03-01T01:26:43;19.98;;;12.18;;
43146;SDS011;28752;48.266;7.402;2023-03-01T01:29:08;23.60;;;12.88;;
43146;SDS011;28752;48.266;7.402;2023-03-01T01:31:34;21.40;;;12.98;;
43146;SDS011;28752;48.266;7.402;2023-03-01T01:34:04;23.73;;;13.75;;
43146;SDS011;28752;48.266;7.402;2023-03-01T01:36:32;27.17;;;14.98;;
43146;SDS011;28752;48.266;7.402;2023-03-01T01:38:59;25.70;;;13.40;;
43146;SDS011;28752;48.266;7.402;2023-03-01T01:41:26;21.77;;;12.68;;
43146;SDS011;28752;48.266;7.402;2023-03-01T01:46:40;22.75;;;12.13;;
43146;SDS011;28752;48.266;7.402;2023-03-01T01:51:38;21.45;;;12.40;;
43146;SDS011;28752;48.266;7.402;2023-03-01T01:54:11;25.88;;;13.75;;
43146;SDS011;28752;48.266;7.402;2023-03-01T01:56:42;23.73;;;13.75;;
43146;SDS011;28752;48.266;7.402;2023-03-01T01:59:12;21.17;;;11.75;;
43146;SDS011;28752;48.266;7.402;2023-03-01T02:01:38;18.92;;;11.45;;
43146;SDS011;28752;48.266;7.402;2023-03-01T02:04:04;21.93;;;12.67;;
43146;SDS011;28752;48.266;7.402;2023-03-01T02:06:32;21.40;;;12.93;;
43146;SDS011;28752;48.266;7.402;2023-03-01T02:09:03;21.80;;;12.63;;
43146;SDS011;28752;48.266;7.402;2023-03-01T02:11:33;22.77;;;12.98;;
43146;SDS011;28752;48.266;7.402;2023-03-01T02:13:59;24.20;;;12.85;;
43146;SDS011;28752;48.266;7.402;2023-03-01T02:16:25;22.15;;;13.10;;
43146;SDS011;28752;48.266;7.402;2023-03-01T02:18:51;23.67;;;13.10;;
43146;SDS011;28752;48.266;7.402;2023-03-01T02:21:34;22.40;;;13.80;;
43146;SDS011;28752;48.266;7.402;2023-03-01T02:24:32;21.52;;;12.35;;
43146;SDS011;28752;48.266;7.402;2023-03-01T02:27:08;23.20;;;13.05;;
43146;SDS011;28752;48.266;7.402;2023-03-01T02:29:34;22.98;;;12.93;;
43146;SDS011;28752;48.266;7.402;2023-03-01T02:32:00;22.58;;;13.07;;
43146;SDS011;28752;48.266;7.402;2023-03-01T02:34:29;24.50;;;13.65;;
43146;SDS011;28752;48.266;7.402;2023-03-01T02:37:00;23.20;;;13.00;;
43146;SDS011;28752;48.266;7.402;2023-03-01T02:39:43;22.95;;;13.50;;
43146;SDS011;28752;48.266;7.402;2023-03-01T02:42:12;23.17;;;12.55;;
43146;SDS011;28752;48.266;7.402;2023-03-01T02:44:42;21.13;;;12.50;;
43146;SDS011;28752;48.266;7.402;2023-03-01T02:47:07;27.40;;;13.10;;
43146;SDS011;28752;48.266;7.402;2023-03-01T02:49:33;22.20;;;12.50;;
43146;SDS011;28752;48.266;7.402;2023-03-01T02:55:11;21.27;;;12.55;;
43146;SDS011;28752;48.266;7.402;2023-03-01T02:57:40;24.90;;;12.85;;
43146;SDS011;28752;48.266;7.402;2023-03-01T03:00:08;22.25;;;12.02;;
43146;SDS011;28752;48.266;7.402;2023-03-01T03:02:36;22.65;;;12.90;;
43146;SDS011;28752;48.266;7.402;2023-03-01T03:05:03;23.70;;;13.40;;
43146;SDS011;28752;48.266;7.402;2023-03-01T03:07:33;23.75;;;13.50;;
43146;SDS011;28752;48.266;7.402;2023-03-01T03:10:00;23.58;;;13.05;;
43146;SDS011;28752;48.266;7.402;2023-03-01T03:12:26;20.60;;;12.70;;
43146;SDS011;28752;48.266;7.402;2023-03-01T03:14:51;24.75;;;13.40;;
43146;SDS011;28752;48.266;7.402;2023-03-01T03:17:17;20.17;;;12.43;;
43146;SDS011;28752;48.266;7.402;2023-03-01T03:19:42;21.37;;;12.80;;
43146;SDS011;28752;48.266;7.402;2023-03-01T03:22:10;24.42;;;13.13;;
43146;SDS011;28752;48.266;7.402;2023-03-01T03:24:39;22.23;;;12.77;;
43146;SDS011;28752;48.266;7.402;2023-03-01T03:27:05;22.43;;;12.77;;
43146;SDS011;28752;48.266;7.402;2023-03-01T03:29:30;22.25;;;13.20;;
43146;SDS011;28752;48.266;7.402;2023-03-01T03:31:56;22.42;;;12.30;;
43146;SDS011;28752;48.266;7.402;2023-03-01T03:34:21;22.23;;;12.70;;
43146;SDS011;28752;48.266;7.402;2023-03-01T03:36:46;21.63;;;13.20;;
43146;SDS011;28752;48.266;7.402;2023-03-01T03:39:12;23.70;;;12.37;;
43146;SDS011;28752;48.266;7.402;2023-03-01T03:41:37;27.67;;;13.33;;
43146;SDS011;28752;48.266;7.402;2023-03-01T03:44:02;21.27;;;12.53;;
43146;SDS011;28752;48.266;7.402;2023-03-01T03:46:28;24.33;;;12.95;;
43146;SDS011;28752;48.266;7.402;2023-03-01T03:48:53;22.50;;;13.40;;
43146;SDS011;28752;48.266;7.402;2023-03-01T03:51:19;21.87;;;12.70;;
43146;SDS011;28752;48.266;7.402;2023-03-01T03:53:44;21.70;;;13.27;;
43146;SDS011;28752;48.266;7.402;2023-03-01T03:56:10;23.00;;;13.82;;
43146;SDS011;28752;48.266;7.402;2023-03-01T04:03:28;25.17;;;12.90;;
43146;SDS011;28752;48.266;7.402;2023-03-01T04:05:54;24.30;;;13.77;;
43146;SDS011;28752;48.266;7.402;2023-03-01T04:08:22;23.35;;;13.25;;
43146;SDS011;28752;48.266;7.402;2023-03-01T04:10:49;23.77;;;13.80;;
43146;SDS011;28752;48.266;7.402;2023-03-01T04:13:17;22.20;;;13.25;;
43146;SDS011;28752;48.266;7.402;2023-03-01T04:15:45;25.83;;;14.38;;
43146;SDS011;28752;48.266;7.402;2023-03-01T04:18:12;22.63;;;12.95;;
43146;SDS011;28752;48.266;7.402;2023-03-01T04:20:38;23.48;;;13.60;;
43146;SDS011;28752;48.266;7.402;2023-03-01T04:23:05;23.37;;;13.63;;
43146;SDS011;28752;48.266;7.402;2023-03-01T04:25:53;22.73;;;12.93;;
43146;SDS011;28752;48.266;7.402;2023-03-01T04:31:02;25.85;;;15.02;;
43146;SDS011;28752;48.266;7.402;2023-03-01T04:33:51;25.23;;;13.68;;
43146;SDS011;28752;48.266;7.402;2023-03-01T04:36:20;30.83;;;16.70;;
43146;SDS011;28752;48.266;7.402;2023-03-01T04:38:47;25.73;;;15.18;;
43146;SDS011;28752;48.266;7.402;2023-03-01T04:41:13;26.25;;;15.70;;
43146;SDS011;28752;48.266;7.402;2023-03-01T04:43:40;25.73;;;14.05;;
43146;SDS011;28752;48.266;7.402;2023-03-01T04:46:07;26.23;;;13.53;;
43146;SDS011;28752;48.266;7.402;2023-03-01T04:48:36;23.25;;;14.70;;
43146;SDS011;28752;48.266;7.402;2023-03-01T04:51:03;26.48;;;14.27;;
43146;SDS011;28752;48.266;7.402;2023-03-01T04:53:29;24.13;;;13.43;;
43146;SDS011;28752;48.266;7.402;2023-03-01T04:55:55;23.15;;;12.98;;
43146;SDS011;28752;48.266;7.402;2023-03-01T04:58:24;24.83;;;14.18;;
43146;SDS011;28752;48.266;7.402;2023-03-01T05:00:52;25.38;;;14.65;;
43146;SDS011;28752;48.266;7.402;2023-03-01T05:03:18;23.65;;;13.23;;
43146;SDS011;28752;48.266;7.402;2023-03-01T05:05:44;24.00;;;13.52;;
43146;SDS011;28752;48.266;7.402;2023-03-01T05:08:12;26.95;;;14.32;;
43146;SDS011;28752;48.266;7.402;2023-03-01T05:10:42;26.23;;;14.60;;
43146;SDS011;28752;48.266;7.402;2023-03-01T05:13:18;25.65;;;14.18;;
43146;SDS011;28752;48.266;7.402;2023-03-01T05:15:48;26.45;;;15.18;;
43146;SDS011;28752;48.266;7.402;2023-03-01T05:18:19;27.45;;;14.90;;
43146;SDS011;28752;48.266;7.402;2023-03-01T05:20:44;27.97;;;15.13;;
43146;SDS011;28752;48.266;7.402;2023-03-01T05:23:10;26.03;;;15.70;;
43146;SDS011;28752;48.266;7.402;2023-03-01T05:25:35;28.05;;;14.98;;
43146;SDS011;28752;48.266;7.402;2023-03-01T05:28:05;34.63;;;19.08;;
43146;SDS011;28752;48.266;7.402;2023-03-01T05:30:33;28.95;;;15.25;;
43146;SDS011;28752;48.266;7.402;2023-03-01T05:32:59;28.42;;;17.05;;
43146;SDS011;28752;48.266;7.402;2023-03-01T05:35:25;31.00;;;17.30;;
43146;SDS011;28752;48.266;7.402;2023-03-01T05:37:51;28.55;;;16.88;;
43146;SDS011;28752;48.266;7.402;2023-03-01T05:40:18;29.08;;;17.17;;
43146;SDS011;28752;48.266;7.402;2023-03-01T05:42:46;30.52;;;16.35;;
43146;SDS011;28752;48.266;7.402;2023-03-01T05:45:13;29.40;;;16.25;;
43146;SDS011;28752;48.266;7.402;2023-03-01T05:50:08;28.52;;;15.30;;
43146;SDS011;28752;48.266;7.402;2023-03-01T05:52:38;30.70;;;16.80;;
43146;SDS011;28752;48.266;7.402;2023-03-01T05:55:03;30.90;;;18.87;;
43146;SDS011;28752;48.266;7.402;2023-03-01T05:57:29;34.88;;;19.00;;
43146;SDS011;28752;48.266;7.402;2023-03-01T05:59:54;31.40;;;17.73;;
43146;SDS011;28752;48.266;7.402;2023-03-01T06:02:20;27.10;;;15.45;;
43146;SDS011;28752;48.266;7.402;2023-03-01T06:04:45;39.03;;;20.60;;
43146;SDS011;28752;48.266;7.402;2023-03-01T06:07:10;30.77;;;17.30;;
43146;SDS011;28752;48.266;7.402;2023-03-01T06:09:36;30.27;;;15.77;;
43146;SDS011;28752;48.266;7.402;2023-03-01T06:12:01;33.73;;;20.13;;
43146;SDS011;28752;48.266;7.402;2023-03-01T06:14:27;28.33;;;16.58;;
43146;SDS011;28752;48.266;7.402;2023-03-01T06:16:52;26.60;;;14.97;;
43146;SDS011;28752;48.266;7.402;2023-03-01T06:19:17;29.93;;;15.63;;
43146;SDS011;28752;48.266;7.402;2023-03-01T06:21:43;29.30;;;15.40;;
43146;SDS011;28752;48.266;7.402;2023-03-01T06:24:08;31.10;;;16.73;;
43146;SDS011;28752;48.266;7.402;2023-03-01T06:26:34;26.60;;;15.65;;
43146;SDS011;28752;48.266;7.402;2023-03-01T06:28:59;27.73;;;15.97;;
43146;SDS011;28752;48.266;7.402;2023-03-01T06:31:24;35.13;;;19.40;;
43146;SDS011;28752;48.266;7.402;2023-03-01T06:33:50;30.67;;;18.03;;
43146;SDS011;28752;48.266;7.402;2023-03-01T06:36:15;29.90;;;17.47;;
43146;SDS011;28752;48.266;7.402;2023-03-01T06:38:43;31.65;;;18.27;;
43146;SDS011;28752;48.266;7.402;2023-03-01T06:41:09;30.83;;;17.13;;
43146;SDS011;28752;48.266;7.402;2023-03-01T06:43:34;30.70;;;18.07;;
43146;SDS011;28752;48.266;7.402;2023-03-01T06:46:00;28.67;;;16.23;;
43146;SDS011;28752;48.266;7.402;2023-03-01T06:48:28;29.92;;;17.42;;
43146;SDS011;28752;48.266;7.402;2023-03-01T06:50:53;31.17;;;17.40;;
43146;SDS011;28752;48.266;7.402;2023-03-01T06:53:18;30.73;;;18.53;;
43146;SDS011;28752;48.266;7.402;2023-03-01T06:55:44;39.00;;;20.77;;
43146;SDS011;28752;48.266;7.402;2023-03-01T06:58:09;32.40;;;19.13;;
43146;SDS011;28752;48.266;7.402;2023-03-01T07:00:36;34.42;;;18.77;;
43146;SDS011;28752;48.266;7.402;2023-03-01T07:03:01;30.63;;;18.03;;
43146;SDS011;28752;48.266;7.402;2023-03-01T07:05:28;33.20;;;19.15;;
43146;SDS011;28752;48.266;7.402;2023-03-01T07:07:55;30.95;;;18.65;;
43146;SDS011;28752;48.266;7.402;2023-03-01T07:10:21;37.20;;;19.55;;
43146;SDS011;28752;48.266;7.402;2023-03-01T07:12:46;32.90;;;18.20;;
43146;SDS011;28752;48.266;7.402;2023-03-01T07:15:11;30.43;;;17.93;;
43146;SDS011;28752;48.266;7.402;2023-03-01T07:17:37;29.43;;;16.43;;
43146;SDS011;28752;48.266;7.402;2023-03-01T07:20:03;32.53;;;17.63;;
43146;SDS011;28752;48.266;7.402;2023-03-01T07:22:28;30.98;;;17.75;;
43146;SDS011;28752;48.266;7.402;2023-03-01T07:24:54;29.47;;;16.83;;
43146;SDS011;28752;48.266;7.402;2023-03-01T07:27:19;30.70;;;16.77;;
43146;SDS011;28752;48.266;7.402;2023-03-01T07:29:44;30.63;;;18.10;;
43146;SDS011;28752;48.266;7.402;2023-03-01T07:32:10;29.57;;;17.03;;
43146;SDS011;28752;48.266;7.402;2023-03-01T07:34:35;30.23;;;17.77;;
43146;SDS011;28752;48.266;7.402;2023-03-01T07:37:01;30.33;;;17.83;;
43146;SDS011;28752;48.266;7.402;2023-03-01T07:39:26;32.43;;;16.83;;
43146;SDS011;28752;48.266;7.402;2023-03-01T07:41:51;30.43;;;16.70;;
43146;SDS011;28752;48.266;7.402;2023-03-01T07:44:17;28.55;;;16.67;;
43146;SDS011;28752;48.266;7.402;2023-03-01T07:46:43;32.17;;;18.93;;
43146;SDS011;28752;48.266;7.402;2023-03-01T07:49:09;28.45;;;17.08;;
43146;SDS011;28752;48.266;7.402;2023-03-01T07:51:35;30.50;;;17.15;;
43146;SDS011;28752;48.266;7.402;2023-03-01T07:54:00;31.50;;;18.05;;
43146;SDS011;28752;48.266;7.402;2023-03-01T07:56:26;32.37;;;17.80;;
43146;SDS011;28752;48.266;7.402;2023-03-01T07:58:51;27.43;;;16.57;;
43146;SDS011;28752;48.266;7.402;2023-03-01T08:01:17;28.70;;;16.97;;
43146;SDS011;28752;48.266;7.402;2023-03-01T08:03:44;30.35;;;17.35;;
43146;SDS011;28752;48.266;7.402;2023-03-01T08:06:10;31.95;;;18.38;;
43146;SDS011;28752;48.266;7.402;2023-03-01T08:08:37;32.50;;;17.73;;
43146;SDS011;28752;48.266;7.402;2023-03-01T08:11:04;30.80;;;17.48;;
43146;SDS011;28752;48.266;7.402;2023-03-01T08:13:31;29.00;;;16.13;;
43146;SDS011;28752;48.266;7.402;2023-03-01T08:16:03;31.05;;;16.88;;
43146;SDS011;28752;48.266;7.402;2023-03-01T08:18:30;38.03;;;19.98;;
43146;SDS011;28752;48.266;7.402;2023-03-01T08:21:01;37.53;;;19.83;;
43146;SDS011;28752;48.266;7.402;2023-03-01T08:23:36;34.42;;;18.42;;
43146;SDS011;28752;48.266;7.402;2023-03-01T08:26:09;29.58;;;17.02;;
43146;SDS011;28752;48.266;7.402;2023-03-01T08:28:39;35.33;;;18.35;;
43146;SDS011;28752;48.266;7.402;2023-03-01T08:33:42;40.08;;;19.20;;
43146;SDS011;28752;48.266;7.402;2023-03-01T08:36:07;33.87;;;17.10;;
43146;SDS011;28752;48.266;7.402;2023-03-01T08:38:34;29.20;;;16.70;;
43146;SDS011;28752;48.266;7.402;2023-03-01T08:41:00;30.23;;;18.27;;
43146;SDS011;28752;48.266;7.402;2023-03-01T08:43:27;30.40;;;17.88;;
43146;SDS011;28752;48.266;7.402;2023-03-01T08:45:53;28.60;;;16.83;;
43146;SDS011;28752;48.266;7.402;2023-03-01T08:48:20;31.08;;;17.77;;
43146;SDS011;28752;48.266;7.402;2023-03-01T08:50:46;31.20;;;17.63;;
43146;SDS011;28752;48.266;7.402;2023-03-01T08:53:11;30.50;;;17.15;;
43146;SDS011;28752;48.266;7.402;2023-03-01T08:55:36;31.43;;;17.87;;
43146;SDS011;28752;48.266;7.402;2023-03-01T08:58:02;30.90;;;17.67;;
43146;SDS011;28752;48.266;7.402;2023-03-01T09:00:27;28.00;;;16.38;;
43146;SDS011;28752;48.266;7.402;2023-03-01T09:02:53;30.90;;;19.40;;
43146;SDS011;28752;48.266;7.402;2023-03-01T09:05:18;35.53;;;20.57;;
43146;SDS011;28752;48.266;7.402;2023-03-01T09:07:43;31.87;;;18.43;;
43146;SDS011;28752;48.266;7.402;2023-03-01T09:10:09;26.03;;;16.00;;
43146;SDS011;28752;48.266;7.402;2023-03-01T09:12:35;28.92;;;17.30;;
43146;SDS011;28752;48.266;7.402;2023-03-01T09:15:00;30.73;;;17.13;;
43146;SDS011;28752;48.266;7.402;2023-03-01T09:17:25;31.00;;;18.07;;
43146;SDS011;28752;48.266;7.402;2023-03-01T09:19:51;33.40;;;18.83;;
43146;SDS011;28752;48.266;7.402;2023-03-01T09:22:16;30.77;;;18.47;;
43146;SDS011;28752;48.266;7.402;2023-03-01T09:24:41;30.47;;;17.40;;
43146;SDS011;28752;48.266;7.402;2023-03-01T09:27:07;30.60;;;18.57;;
43146;SDS011;28752;48.266;7.402;2023-03-01T09:31:59;29.40;;;17.70;;
43146;SDS011;28752;48.266;7.402;2023-03-01T09:34:25;29.85;;;17.10;;
43146;SDS011;28752;48.266;7.402;2023-03-01T09:36:51;31.92;;;18.48;;
43146;SDS011;28752;48.266;7.402;2023-03-01T09:39:16;32.17;;;18.57;;
43146;SDS011;28752;48.266;7.402;2023-03-01T09:41:59;28.88;;;17.52;;
43146;SDS011;28752;48.266;7.402;2023-03-01T09:47:03;31.48;;;19.45;;
43146;SDS011;28752;48.266;7.402;2023-03-01T09:49:30;29.63;;;18.08;;
43146;SDS011;28752;48.266;7.402;2023-03-01T09:51:59;30.83;;;18.17;;
43146;SDS011;28752;48.266;7.402;2023-03-01T09:54:32;28.17;;;17.90;;
43146;SDS011;28752;48.266;7.402;2023-03-01T09:57:07;28.37;;;17.70;;
43146;SDS011;28752;48.266;7.402;2023-03-01T09:59:44;26.38;;;16.77;;
43146;SDS011;28752;48.266;7.402;2023-03-01T10:02:30;28.33;;;17.90;;
43146;SDS011;28752;48.266;7.402;2023-03-01T10:07:59;30.48;;;18.92;;
43146;SDS011;28752;48.266;7.402;2023-03-01T10:10:31;26.80;;;17.42;;
43146;SDS011;28752;48.266;7.402;2023-03-01T10:13:00;31.85;;;18.27;;
43146;SDS011;28752;48.266;7.402;2023-03-01T10:15:36;28.23;;;16.58;;
43146;SDS011;28752;48.266;7.402;2023-03-01T10:18:17;30.73;;;17.80;;
43146;SDS011;28752;48.266;7.402;2023-03-01T10:20:55;29.00;;;17.60;;
43146;SDS011;28752;48.266;7.402;2023-03-01T10:23:24;37.17;;;20.67;;
43146;SDS011;28752;48.266;7.402;2023-03-01T10:28:29;27.88;;;17.13;;
43146;SDS011;28752;48.266;7.402;2023-03-01T10:31:03;30.23;;;18.95;;
43146;SDS011;28752;48.266;7.402;2023-03-01T10:33:35;27.08;;;16.83;;
43146;SDS011;28752;48.266;7.402;2023-03-01T10:36:04;30.10;;;18.25;;
43146;SDS011;28752;48.266;7.402;2023-03-01T10:38:31;29.40;;;17.23;;
43146;SDS011;28752;48.266;7.402;2023-03-01T10:41:11;31.40;;;17.35;;
43146;SDS011;28752;48.266;7.402;2023-03-01T10:43:44;28.10;;;16.77;;
43146;SDS011;28752;48.266;7.402;2023-03-01T10:46:28;28.00;;;16.85;;
43146;SDS011;28752;48.266;7.402;2023-03-01T10:49:05;29.42;;;18.00;;
43146;SDS011;28752;48.266;7.402;2023-03-01T10:51:43;28.38;;;17.23;;
43146;SDS011;28752;48.266;7.402;2023-03-01T10:54:21;27.80;;;17.02;;
43146;SDS011;28752;48.266;7.402;2023-03-01T10:59:31;30.33;;;16.95;;
43146;SDS011;28752;48.266;7.402;2023-03-01T11:04:29;28.65;;;17.15;;
43146;SDS011;28752;48.266;7.402;2023-03-01T11:06:59;28.27;;;16.87;;
43146;SDS011;28752;48.266;7.402;2023-03-01T11:09:25;26.67;;;16.60;;
43146;SDS011;28752;48.266;7.402;2023-03-01T11:11:56;27.70;;;16.73;;
43146;SDS011;28752;48.266;7.402;2023-03-01T11:14:23;29.02;;;17.27;;
43146;SDS011;28752;48.266;7.402;2023-03-01T11:19:59;25.83;;;15.52;;
43146;SDS011;28752;48.266;7.402;2023-03-01T11:22:26;28.27;;;16.88;;
43146;SDS011;28752;48.266;7.402;2023-03-01T11:24:53;26.92;;;15.95;;
43146;SDS011;28752;48.266;7.402;2023-03-01T11:27:35;26.88;;;16.30;;
43146;SDS011;28752;48.266;7.402;2023-03-01T11:30:07;26.40;;;15.68;;
43146;SDS011;28752;48.266;7.402;2023-03-01T11:35:22;26.92;;;16.05;;
43146;SDS011;28752;48.266;7.402;2023-03-01T11:46:12;30.15;;;17.92;;
43146;SDS011;28752;48.266;7.402;2023-03-01T11:49:09;28.27;;;16.05;;
43146;SDS011;28752;48.266;7.402;2023-03-01T11:56:52;29.92;;;16.95;;
43146;SDS011;28752;48.266;7.402;2023-03-01T11:59:30;25.25;;;16.40;;
43146;SDS011;28752;48.266;7.402;2023-03-01T12:07:20;29.08;;;17.30;;
43146;SDS011;28752;48.266;7.402;2023-03-01T12:09:54;26.98;;;16.75;;
43146;SDS011;28752;48.266;7.402;2023-03-01T12:13:14;27.92;;;16.88;;
43146;SDS011;28752;48.266;7.402;2023-03-01T12:15:39;25.65;;;16.83;;
43146;SDS011;28752;48.266;7.402;2023-03-01T12:28:52;30.05;;;17.90;;
43146;SDS011;28752;48.266;7.402;2023-03-01T12:34:39;28.60;;;18.30;;
43146;SDS011;28752;48.266;7.402;2023-03-01T12:43:24;29.23;;;18.05;;
43146;SDS011;28752;48.266;7.402;2023-03-01T12:51:35;25.85;;;17.15;;
43146;SDS011;28752;48.266;7.402;2023-03-01T12:54:14;28.25;;;17.77;;
43146;SDS011;28752;48.266;7.402;2023-03-01T12:56:41;29.13;;;17.95;;
43146;SDS011;28752;48.266;7.402;2023-03-01T12:59:17;25.02;;;16.23;;
43146;SDS011;28752;48.266;7.402;2023-03-01T13:17:58;30.60;;;18.73;;
43146;SDS011;28752;48.266;7.402;2023-03-01T13:20:27;28.30;;;18.30;;
43146;SDS011;28752;48.266;7.402;2023-03-01T13:23:04;27.90;;;18.17;;
43146;SDS011;28752;48.266;7.402;2023-03-01T13:26:02;31.60;;;19.42;;
43146;SDS011;28752;48.266;7.402;2023-03-01T13:28:53;29.88;;;17.25;;
43146;SDS011;28752;48.266;7.402;2023-03-01T13:33:52;28.02;;;17.20;;
43146;SDS011;28752;48.266;7.402;2023-03-01T13:37:05;28.95;;;17.83;;
43146;SDS011;28752;48.266;7.402;2023-03-01T13:39:28;28.85;;;18.50;;
43146;SDS011;28752;48.266;7.402;2023-03-01T13:41:57;31.92;;;19.05;;
43146;SDS011;28752;48.266;7.402;2023-03-01T13:47:15;27.38;;;17.67;;
43146;SDS011;28752;48.266;7.402;2023-03-01T13:58:18;29.08;;;19.48;;
43146;SDS011;28752;48.266;7.402;2023-03-01T14:01:20;31.15;;;18.88;;
43146;SDS011;28752;48.266;7.402;2023-03-01T14:03:51;29.02;;;17.42;;
43146;SDS011;28752;48.266;7.402;2023-03-01T14:06:20;28.15;;;18.10;;
43146;SDS011;28752;48.266;7.402;2023-03-01T14:08:48;29.15;;;17.95;;
43146;SDS011;28752;48.266;7.402;2023-03-01T14:16:52;28.45;;;18.02;;
43146;SDS011;28752;48.266;7.402;2023-03-01T14:19:29;28.95;;;18.88;;
43146;SDS011;28752;48.266;7.402;2023-03-01T14:21:59;29.60;;;18.73;;
43146;SDS011;28752;48.266;7.402;2023-03-01T14:24:38;29.38;;;18.20;;
43146;SDS011;28752;48.266;7.402;2023-03-01T14:27:12;30.88;;;18.25;;
43146;SDS011;28752;48.266;7.402;2023-03-01T14:29:39;30.48;;;18.75;;
43146;SDS011;28752;48.266;7.402;2023-03-01T14:34:45;27.58;;;17.73;;
43146;SDS011;28752;48.266;7.402;2023-03-01T14:37:19;31.67;;;19.40;;
43146;SDS011;28752;48.266;7.402;2023-03-01T14:39:47;31.13;;;18.90;;
43146;SDS011;28752;48.266;7.402;2023-03-01T14:42:13;34.38;;;19.80;;
43146;SDS011;28752;48.266;7.402;2023-03-01T14:47:10;29.65;;;18.65;;
43146;SDS011;28752;48.266;7.402;2023-03-01T14:49:39;28.77;;;18.67;;
43146;SDS011;28752;48.266;7.402;2023-03-01T14:52:17;30.50;;;19.85;;
43146;SDS011;28752;48.266;7.402;2023-03-01T14:54:49;27.83;;;17.70;;
43146;SDS011;28752;48.266;7.402;2023-03-01T14:57:19;29.42;;;18.60;;
43146;SDS011;28752;48.266;7.402;2023-03-01T14:59:49;29.60;;;18.58;;
43146;SDS011;28752;48.266;7.402;2023-03-01T15:02:18;28.85;;;18.10;;
43146;SDS011;28752;48.266;7.402;2023-03-01T15:04:46;28.38;;;18.10;;
43146;SDS011;28752;48.266;7.402;2023-03-01T15:07:15;30.27;;;18.00;;
43146;SDS011;28752;48.266;7.402;2023-03-01T15:09:41;28.77;;;19.25;;
43146;SDS011;28752;48.266;7.402;2023-03-01T15:14:54;28.75;;;18.05;;
43146;SDS011;28752;48.266;7.402;2023-03-01T15:17:23;28.10;;;17.75;;
43146;SDS011;28752;48.266;7.402;2023-03-01T15:19:57;28.15;;;18.08;;
43146;SDS011;28752;48.266;7.402;2023-03-01T15:22:22;29.50;;;19.20;;
43146;SDS011;28752;48.266;7.402;2023-03-01T15:24:51;30.98;;;18.77;;
43146;SDS011;28752;48.266;7.402;2023-03-01T15:27:18;30.67;;;19.35;;
43146;SDS011;28752;48.266;7.402;2023-03-01T15:30:04;30.08;;;19.40;;
43146;SDS011;28752;48.266;7.402;2023-03-01T15:34:59;28.07;;;17.93;;
43146;SDS011;28752;48.266;7.402;2023-03-01T15:37:38;31.75;;;18.33;;
43146;SDS011;28752;48.266;7.402;2023-03-01T15:40:17;30.35;;;17.85;;
43146;SDS011;28752;48.266;7.402;2023-03-01T15:42:42;33.30;;;20.80;;
43146;SDS011;28752;48.266;7.402;2023-03-01T15:47:38;30.80;;;19.88;;
43146;SDS011;28752;48.266;7.402;2023-03-01T15:50:05;30.02;;;18.77;;
43146;SDS011;28752;48.266;7.402;2023-03-01T15:52:41;35.10;;;20.30;;
43146;SDS011;28752;48.266;7.402;2023-03-01T15:55:15;32.00;;;19.77;;
43146;SDS011;28752;48.266;7.402;2023-03-01T15:57:43;31.15;;;18.25;;
43146;SDS011;28752;48.266;7.402;2023-03-01T16:00:11;34.87;;;19.60;;
43146;SDS011;28752;48.266;7.402;2023-03-01T16:02:38;30.80;;;19.05;;
43146;SDS011;28752;48.266;7.402;2023-03-01T16:05:15;33.88;;;19.67;;
43146;SDS011;28752;48.266;7.402;2023-03-01T16:07:53;29.65;;;17.88;;
43146;SDS011;28752;48.266;7.402;2023-03-01T16:10:19;34.03;;;19.60;;
43146;SDS011;28752;48.266;7.402;2023-03-01T16:12:45;35.35;;;20.10;;
43146;SDS011;28752;48.266;7.402;2023-03-01T16:15:26;32.67;;;20.08;;
43146;SDS011;28752;48.266;7.402;2023-03-01T16:17:55;32.63;;;19.83;;
43146;SDS011;28752;48.266;7.402;2023-03-01T16:20:22;35.38;;;19.23;;
43146;SDS011;28752;48.266;7.402;2023-03-01T16:22:49;30.75;;;19.23;;
43146;SDS011;28752;48.266;7.402;2023-03-01T16:25:15;31.93;;;19.97;;
43146;SDS011;28752;48.266;7.402;2023-03-01T16:27:42;32.63;;;19.30;;
43146;SDS011;28752;48.266;7.402;2023-03-01T16:30:09;32.28;;;19.73;;
43146;SDS011;28752;48.266;7.402;2023-03-01T16:32:38;30.70;;;18.95;;
43146;SDS011;28752;48.266;7.402;2023-03-01T16:35:05;29.83;;;18.90;;
43146;SDS011;28752;48.266;7.402;2023-03-01T16:39:58;34.22;;;19.63;;
43146;SDS011;28752;48.266;7.402;2023-03-01T16:42:23;34.67;;;19.17;;
43146;SDS011;28752;48.266;7.402;2023-03-01T16:44:48;32.73;;;20.20;;
43146;SDS011;28752;48.266;7.402;2023-03-01T16:47:19;30.73;;;18.83;;
43146;SDS011;28752;48.266;7.402;2023-03-01T16:49:45;31.20;;;19.87;;
43146;SDS011;28752;48.266;7.402;2023-03-01T16:52:10;31.77;;;19.63;;